Malaysia Virtual Airlines Airport Information Service

Sibu

ICAO: WBGS Country: Malaysia
Latitude: 2.2616 Longitude: 111.985
Latest Arrival : MH2712 (WMKK-WBGS) Latest Departure : MH2715 (WBGS-WMKK)


WX CaptureLIVE
Data provided by noaa.gov | Fetched at 20:22:15

METAR : WBGS 122000Z 15003KT 120V210 9999 FEW016 26/25 Q1006

TAF : WBGS 121700Z 1218/1318 VRB03KT 9999 SCT016 TEMPO 1307/1311 34007KT 5000 TSRA FEW015CB


Runway Data for WBGS
Data provided by openaviationdata.com

Runway ID Mag Var Hdg Length Elevation Surface ILS Freq ILS Id ILS Slope
13 1 128° 6473 ft 116 ft Asphalt 110.5 ISU 3
31 1 308° 6473 ft 116 ft Asphalt -- -- --

Sibu, Malaysia
Use only for reference purposes



Not for navigational purposes.